createdAt,value
2018-06-18T00:00:19.673Z,17.80
2018-06-18T00:02:48.141Z,17.80
2018-06-18T00:05:16.536Z,17.80
2018-06-18T00:07:44.960Z,17.70
2018-06-18T00:10:13.447Z,17.70
2018-06-18T00:12:41.924Z,17.60
2018-06-18T00:15:10.352Z,17.60
2018-06-18T00:17:38.743Z,17.60
2018-06-18T00:20:07.151Z,17.60
2018-06-18T00:22:35.549Z,17.60
2018-06-18T00:25:04.039Z,17.60
2018-06-18T00:27:32.509Z,17.60
2018-06-18T00:30:00.915Z,17.70
2018-06-18T00:32:29.331Z,17.70
2018-06-18T00:39:53.959Z,17.70
2018-06-18T00:44:50.484Z,17.70
2018-06-18T00:47:18.883Z,17.70
2018-06-18T00:49:47.272Z,17.60
2018-06-18T00:54:43.779Z,17.70
2018-06-18T00:57:12.172Z,17.70
2018-06-18T00:59:40.572Z,17.70
2018-06-18T01:02:08.972Z,17.70
2018-06-18T01:07:05.653Z,17.70
2018-06-18T01:09:34.079Z,17.70
2018-06-18T01:12:02.513Z,17.70
2018-06-18T01:14:30.966Z,17.80
2018-06-18T01:19:27.448Z,17.80
2018-06-18T01:21:55.891Z,17.90
2018-06-18T01:26:58.119Z,17.90
2018-06-18T01:29:26.504Z,17.90
2018-06-18T01:31:54.983Z,17.80
2018-06-18T01:34:27.967Z,17.80
2018-06-18T01:36:56.432Z,17.80
2018-06-18T01:39:24.839Z,17.80
2018-06-18T01:41:53.857Z,17.70
2018-06-18T01:44:22.271Z,17.70
2018-06-18T01:49:18.763Z,17.70
2018-06-18T01:51:47.175Z,17.70
2018-06-18T01:54:15.573Z,17.70
2018-06-18T02:01:40.160Z,17.60
2018-06-18T02:04:08.592Z,17.60
2018-06-18T02:09:08.392Z,17.70
2018-06-18T02:11:36.825Z,17.70
2018-06-18T02:14:05.279Z,17.70
2018-06-18T02:16:33.929Z,17.70
2018-06-18T02:19:02.352Z,17.60
2018-06-18T02:23:58.884Z,17.60
2018-06-18T02:26:27.275Z,17.60
2018-06-18T02:29:01.159Z,17.60
2018-06-18T02:31:34.966Z,17.60
2018-06-18T02:34:08.884Z,17.60
2018-06-18T02:36:42.671Z,17.70
2018-06-18T02:39:13.835Z,17.70
2018-06-18T02:41:43.110Z,17.70
2018-06-18T02:44:11.543Z,17.80
2018-06-18T02:49:08.171Z,17.80
2018-06-18T02:51:36.640Z,17.80
2018-06-18T02:54:05.718Z,17.80
2018-06-18T02:56:40.745Z,17.70
2018-06-18T02:59:09.171Z,17.70
2018-06-18T03:01:37.568Z,17.70
2018-06-18T03:06:34.275Z,17.70
2018-06-18T03:09:02.796Z,17.70
2018-06-18T03:11:31.219Z,17.70
2018-06-18T03:13:59.689Z,17.70
2018-06-18T03:16:28.079Z,17.70
2018-06-18T03:19:01.740Z,17.60
2018-06-18T03:24:09.168Z,17.60
2018-06-18T03:26:42.879Z,17.70
2018-06-18T03:29:16.391Z,17.70
2018-06-18T03:31:45.916Z,17.70
2018-06-18T03:34:14.397Z,17.70
2018-06-18T03:36:43.797Z,17.70
2018-06-18T03:39:13.867Z,17.60
2018-06-18T03:44:20.899Z,17.70
2018-06-18T03:46:49.288Z,17.70
2018-06-18T03:49:17.684Z,17.70
2018-06-18T03:51:46.073Z,17.70
2018-06-18T03:54:14.480Z,17.70
2018-06-18T03:56:42.867Z,17.70
2018-06-18T04:02:06.064Z,17.70
2018-06-18T04:04:49.591Z,17.60
2018-06-18T04:07:24.623Z,17.60
2018-06-18T04:09:58.488Z,17.70
2018-06-18T04:12:26.905Z,17.70
2018-06-18T04:17:23.505Z,17.70
2018-06-18T04:19:51.940Z,17.70
2018-06-18T04:24:48.473Z,17.70
2018-06-18T04:27:16.855Z,17.80
2018-06-18T04:32:13.737Z,17.90
2018-06-18T04:37:13.463Z,17.90
2018-06-18T04:42:15.359Z,18.00
2018-06-18T04:44:49.138Z,18.00
2018-06-18T04:47:22.827Z,18.00
2018-06-18T04:49:56.601Z,17.90
2018-06-18T04:52:25.020Z,17.90
2018-06-18T04:54:53.419Z,18.00
2018-06-18T04:57:21.859Z,18.00
2018-06-18T05:00:02.533Z,18.00
2018-06-18T05:02:30.931Z,18.00
2018-06-18T05:04:59.460Z,18.00
2018-06-18T05:07:27.914Z,18.10
2018-06-18T05:10:03.425Z,18.10
2018-06-18T05:12:31.828Z,18.10
2018-06-18T05:15:00.385Z,18.10
2018-06-18T05:17:29.059Z,18.10
2018-06-18T05:19:57.475Z,18.20
2018-06-18T05:24:54.040Z,18.20
2018-06-18T05:29:52.083Z,18.30
2018-06-18T05:32:20.533Z,18.30
2018-06-18T05:34:49.452Z,18.30
2018-06-18T05:37:21.292Z,18.40
2018-06-18T05:39:49.774Z,18.40
2018-06-18T05:42:18.175Z,18.40
2018-06-18T05:44:46.579Z,18.50
2018-06-18T05:47:14.984Z,18.50
2018-06-18T05:52:11.509Z,18.60
2018-06-18T05:54:39.923Z,18.60
2018-06-18T05:59:36.435Z,18.70
2018-06-18T06:02:04.891Z,18.80
2018-06-18T06:04:33.283Z,18.80
2018-06-18T06:07:01.707Z,18.80
2018-06-18T06:09:30.108Z,18.80
2018-06-18T06:11:58.535Z,18.90
2018-06-18T06:14:26.955Z,18.90
2018-06-18T06:19:23.529Z,19.00
2018-06-18T06:21:51.919Z,19.10
2018-06-18T06:24:20.396Z,19.20
2018-06-18T06:26:48.811Z,19.20
2018-06-18T06:29:17.220Z,19.30
2018-06-18T06:34:13.765Z,19.50
2018-06-18T06:36:42.136Z,19.60
2018-06-18T06:39:11.224Z,19.80
2018-06-18T06:41:41.623Z,19.70
2018-06-18T06:44:10.103Z,19.80
2018-06-18T06:46:38.543Z,19.80
2018-06-18T06:54:03.178Z,19.90
2018-06-18T06:58:59.687Z,19.80
2018-06-18T07:01:28.089Z,19.90
2018-06-18T07:03:56.496Z,20.00
2018-06-18T07:06:24.923Z,20.20
2018-06-18T07:08:53.340Z,20.20
2018-06-18T07:16:18.920Z,20.00
2018-06-18T07:18:47.459Z,20.00
2018-06-18T07:23:05.937Z,20.00
2018-06-18T07:25:34.331Z,19.90
2018-06-18T07:28:02.784Z,19.80
2018-06-18T07:30:31.380Z,19.80
2018-06-18T07:32:59.696Z,20.00
2018-06-18T07:35:28.110Z,20.00
2018-06-18T07:37:56.583Z,19.90
2018-06-18T07:40:25.090Z,19.90
2018-06-18T07:42:53.468Z,19.90
2018-06-18T07:45:21.869Z,19.80
2018-06-18T07:50:18.447Z,19.80
2018-06-18T07:52:46.856Z,19.90
2018-06-18T07:55:15.268Z,19.80
2018-06-18T08:00:11.903Z,19.70
2018-06-18T08:02:40.342Z,19.70
2018-06-18T08:05:08.771Z,19.70
2018-06-18T08:07:37.223Z,19.80
2018-06-18T08:10:05.680Z,19.80
2018-06-18T08:12:34.108Z,19.90
2018-06-18T08:15:02.893Z,20.00
2018-06-18T08:17:31.299Z,20.20
2018-06-18T08:22:27.810Z,20.50
2018-06-18T08:24:56.207Z,20.50
2018-06-18T08:27:24.626Z,20.50
2018-06-18T08:29:53.065Z,20.50
2018-06-18T08:32:21.494Z,20.70
2018-06-18T08:34:49.968Z,20.80
2018-06-18T08:37:18.446Z,20.80
2018-06-18T08:42:14.997Z,20.90
2018-06-18T08:44:43.423Z,21.10
2018-06-18T08:47:11.829Z,21.10
2018-06-18T08:49:45.539Z,21.10
2018-06-18T08:52:19.135Z,21.30
2018-06-18T08:54:53.035Z,21.40
2018-06-18T08:57:26.846Z,21.50
2018-06-18T09:00:00.655Z,21.60
2018-06-18T09:02:31.811Z,21.90
2018-06-18T09:05:06.012Z,22.10
2018-06-18T09:08:39.730Z,22.10
2018-06-18T09:11:08.266Z,22.00
2018-06-18T09:13:36.707Z,22.00
2018-06-18T09:16:05.154Z,22.20
2018-06-18T09:18:33.616Z,22.30
2018-06-18T09:21:02.036Z,22.40
2018-06-18T09:23:30.483Z,22.50
2018-06-18T09:25:59.827Z,22.30
2018-06-18T09:28:29.860Z,22.20
2018-06-18T09:33:26.895Z,22.00
2018-06-18T09:35:55.371Z,21.90
2018-06-18T09:38:23.911Z,21.90
2018-06-18T09:40:52.332Z,21.80
2018-06-18T09:43:20.816Z,21.70
2018-06-18T09:45:49.327Z,21.70
2018-06-18T09:48:17.796Z,21.80
2018-06-18T09:50:51.689Z,21.90
2018-06-18T09:53:25.395Z,22.00
2018-06-18T09:55:59.681Z,22.20
2018-06-18T09:58:33.436Z,22.20
2018-06-18T10:01:08.347Z,22.30
2018-06-18T10:03:36.915Z,22.40
2018-06-18T10:06:06.335Z,22.20
2018-06-18T10:08:34.822Z,22.20
2018-06-18T10:11:03.323Z,22.20
2018-06-18T10:13:31.787Z,22.10
2018-06-18T10:16:00.566Z,22.10
2018-06-18T10:18:29.323Z,22.20
2018-06-18T10:20:57.739Z,22.20
2018-06-18T10:23:26.228Z,22.20
2018-06-18T10:25:55.218Z,22.30
2018-06-18T10:28:23.701Z,22.40
2018-06-18T10:30:52.265Z,22.70
2018-06-18T10:33:26.216Z,22.90
2018-06-18T10:36:00.046Z,23.10
2018-06-18T10:38:33.830Z,23.30
2018-06-18T10:41:08.033Z,23.60
2018-06-18T10:43:37.438Z,23.90
2018-06-18T10:46:06.084Z,24.00
2018-06-18T10:48:34.606Z,24.10
2018-06-18T10:51:03.107Z,23.90
2018-06-18T10:55:59.803Z,23.70
2018-06-18T10:58:28.481Z,23.40
2018-06-18T11:01:07.262Z,23.30
2018-06-18T11:03:35.748Z,23.20
2018-06-18T11:06:09.471Z,23.10
2018-06-18T11:08:38.016Z,23.00
2018-06-18T11:11:06.498Z,22.90
2018-06-18T11:13:34.996Z,22.90
2018-06-18T11:16:03.552Z,22.90
2018-06-18T11:18:37.467Z,22.80
2018-06-18T11:21:11.116Z,22.80
2018-06-18T11:23:45.091Z,22.80
2018-06-18T11:26:18.962Z,22.80
2018-06-18T11:28:47.554Z,22.80
2018-06-18T11:31:15.956Z,22.90
2018-06-18T11:33:45.450Z,22.90
2018-06-18T11:36:13.925Z,22.90
2018-06-18T11:38:42.444Z,23.10
2018-06-18T11:41:10.899Z,23.20
2018-06-18T11:43:39.434Z,23.20
2018-06-18T11:46:07.872Z,23.20
2018-06-18T11:48:36.348Z,23.20
2018-06-18T11:51:04.849Z,23.10
2018-06-18T11:53:33.307Z,23.10
2018-06-18T11:56:01.835Z,23.10
2018-06-18T12:01:09.074Z,23.10
2018-06-18T12:03:42.891Z,23.30
2018-06-18T12:06:17.743Z,23.20
2018-06-18T12:08:51.572Z,23.20
2018-06-18T12:13:48.491Z,23.10
2018-06-18T12:16:16.995Z,23.10
2018-06-18T12:18:45.482Z,23.00
2018-06-18T12:21:13.963Z,23.00
2018-06-18T12:23:42.420Z,22.90
2018-06-18T12:26:10.927Z,22.90
2018-06-18T12:28:39.380Z,22.80
2018-06-18T12:31:08.052Z,22.90
2018-06-18T12:33:36.763Z,22.90
2018-06-18T12:36:05.481Z,22.90
2018-06-18T12:38:34.031Z,23.00
2018-06-18T12:41:02.588Z,22.90
2018-06-18T12:43:34.684Z,22.80
2018-06-18T12:46:08.425Z,22.80
2018-06-18T12:51:15.825Z,22.70
2018-06-18T12:53:49.574Z,22.70
2018-06-18T12:56:23.354Z,22.50
2018-06-18T12:58:51.783Z,22.60
2018-06-18T13:01:57.311Z,22.50
2018-06-18T13:04:25.816Z,22.60
2018-06-18T13:06:55.372Z,22.80
2018-06-18T13:09:23.799Z,23.00
2018-06-18T13:11:53.344Z,23.40
2018-06-18T13:14:21.904Z,23.70
2018-06-18T13:16:50.518Z,23.80
2018-06-18T13:19:18.983Z,23.80
2018-06-18T13:21:47.559Z,23.90
2018-06-18T13:24:16.020Z,24.10
2018-06-18T13:26:44.507Z,24.10
2018-06-18T13:29:13.066Z,24.10
2018-06-18T13:31:41.563Z,24.10
2018-06-18T13:34:10.083Z,24.00
2018-06-18T13:36:38.902Z,23.70
2018-06-18T13:39:13.805Z,23.60
2018-06-18T13:41:47.765Z,23.50
2018-06-18T13:44:21.677Z,23.40
2018-06-18T13:46:55.488Z,23.30
2018-06-18T13:49:29.178Z,23.10
2018-06-18T13:51:57.761Z,23.10
2018-06-18T13:54:26.772Z,23.10
2018-06-18T13:56:55.278Z,23.10
2018-06-18T13:59:23.771Z,23.00
2018-06-18T14:01:52.260Z,22.90
2018-06-18T14:04:21.212Z,22.90
2018-06-18T14:06:49.828Z,23.00
2018-06-18T14:09:18.328Z,23.00
2018-06-18T14:11:46.787Z,23.00
2018-06-18T14:14:15.332Z,22.90
2018-06-18T14:16:43.851Z,22.90
2018-06-18T14:19:17.807Z,22.80
2018-06-18T14:21:46.247Z,22.80
2018-06-18T14:24:14.768Z,22.80
2018-06-18T14:26:43.271Z,22.90
2018-06-18T14:29:17.017Z,22.90
2018-06-18T14:31:50.768Z,22.90
2018-06-18T14:34:24.676Z,23.10
2018-06-18T14:36:58.618Z,23.10
2018-06-18T14:39:33.629Z,23.10
2018-06-18T14:42:02.391Z,23.20
2018-06-18T14:44:31.275Z,23.20
2018-06-18T14:46:59.735Z,23.30
2018-06-18T14:49:28.623Z,23.20
2018-06-18T14:51:57.091Z,23.20
2018-06-18T14:54:26.214Z,23.30
2018-06-18T14:56:56.753Z,23.30
2018-06-18T14:59:32.934Z,23.40
2018-06-18T15:02:01.472Z,23.50
2018-06-18T15:04:30.779Z,23.40
2018-06-18T15:06:59.303Z,23.60
2018-06-18T15:09:27.861Z,23.60
2018-06-18T15:11:56.837Z,23.70
2018-06-18T15:14:25.358Z,24.00
2018-06-18T15:16:54.599Z,24.10
2018-06-18T15:19:23.474Z,24.30
2018-06-18T15:21:55.292Z,24.50
2018-06-18T15:26:54.950Z,24.50
2018-06-18T15:29:23.376Z,24.40
2018-06-18T15:31:53.044Z,24.30
2018-06-18T15:34:21.683Z,24.50
2018-06-18T15:36:50.280Z,24.40
2018-06-18T15:41:48.085Z,24.40
2018-06-18T15:44:16.662Z,24.50
2018-06-18T15:46:45.301Z,24.30
2018-06-18T15:49:13.824Z,24.20
2018-06-18T15:56:39.119Z,24.10
2018-06-18T15:59:07.553Z,23.90
2018-06-18T16:04:04.368Z,23.80
2018-06-18T16:06:32.924Z,23.80
2018-06-18T16:09:01.435Z,24.00
2018-06-18T16:11:29.944Z,23.90
2018-06-18T16:13:58.415Z,23.90
2018-06-18T16:16:27.015Z,24.00
2018-06-18T16:18:55.545Z,24.10
2018-06-18T16:21:23.979Z,24.10
2018-06-18T16:26:20.743Z,24.00
2018-06-18T16:28:49.406Z,23.90
2018-06-18T16:31:18.013Z,24.00
2018-06-18T16:33:46.766Z,24.00
2018-06-18T16:36:15.505Z,24.10
2018-06-18T16:46:09.332Z,24.10
2018-06-18T16:48:37.797Z,24.20
2018-06-18T16:53:34.864Z,24.40
2018-06-18T16:56:03.634Z,24.40
2018-06-18T16:58:32.392Z,24.40
2018-06-18T17:01:00.979Z,24.30
2018-06-18T17:03:29.654Z,24.10
2018-06-18T17:05:58.535Z,24.00
2018-06-18T17:08:27.400Z,23.90
2018-06-18T17:10:56.145Z,23.90
2018-06-18T17:13:26.019Z,23.90
2018-06-18T17:15:54.827Z,23.90
2018-06-18T17:18:24.039Z,23.90
2018-06-18T17:20:53.195Z,23.80
2018-06-18T17:23:22.221Z,23.90
2018-06-18T17:25:50.767Z,23.80
2018-06-18T17:28:19.259Z,23.80
2018-06-18T17:31:21.129Z,23.70
2018-06-18T17:33:49.691Z,23.80
2018-06-18T17:36:18.198Z,23.90
2018-06-18T17:38:46.772Z,23.90
2018-06-18T17:41:15.356Z,23.90
2018-06-18T17:43:43.815Z,23.80
2018-06-18T17:48:40.687Z,23.80
2018-06-18T17:59:58.883Z,23.60
2018-06-18T18:04:57.538Z,23.50
2018-06-18T18:07:27.176Z,23.40
2018-06-18T18:09:55.916Z,23.40
2018-06-18T18:12:24.550Z,23.30
2018-06-18T18:14:53.013Z,23.40
2018-06-18T18:17:21.783Z,23.40
2018-06-18T18:19:50.296Z,23.50
2018-06-18T18:22:18.758Z,23.50
2018-06-18T18:24:47.327Z,23.50
2018-06-18T18:27:16.065Z,23.40
2018-06-18T18:29:44.734Z,23.40
2018-06-18T18:32:13.223Z,23.40
2018-06-18T18:36:06.080Z,23.40
2018-06-18T18:38:34.577Z,23.30
2018-06-18T18:41:03.088Z,23.30
2018-06-18T18:43:31.833Z,23.20
2018-06-18T18:46:00.369Z,23.10
2018-06-18T18:48:29.016Z,23.10
2018-06-18T18:50:57.547Z,23.00
2018-06-18T18:53:26.108Z,23.00
2018-06-18T18:56:06.866Z,22.90
2018-06-18T19:01:40.472Z,22.80
2018-06-18T19:04:11.933Z,22.70
2018-06-18T19:09:10.641Z,22.60
2018-06-18T19:14:07.607Z,22.50
2018-06-18T19:19:05.066Z,22.40
2018-06-18T19:21:33.615Z,22.40
2018-06-18T19:24:02.275Z,22.40
2018-06-18T19:26:30.908Z,22.30
2018-06-18T19:28:59.450Z,22.30
2018-06-18T19:31:28.049Z,22.20
2018-06-18T19:34:16.646Z,22.00
2018-06-18T19:36:59.848Z,22.00
2018-06-18T19:39:30.590Z,21.90
2018-06-18T19:41:59.145Z,21.80
2018-06-18T19:44:27.715Z,21.70
2018-06-18T19:47:08.855Z,21.70
2018-06-18T19:49:37.407Z,21.60
2018-06-18T19:52:06.042Z,21.60
2018-06-18T19:54:37.638Z,21.60
2018-06-18T19:57:06.549Z,21.60
2018-06-18T19:59:35.206Z,21.50
2018-06-18T20:02:03.724Z,21.50
2018-06-18T20:04:32.568Z,21.50
2018-06-18T20:07:01.274Z,21.40
2018-06-18T20:09:29.777Z,21.40
2018-06-18T20:11:58.632Z,21.30
2018-06-18T20:14:27.215Z,21.30
2018-06-18T20:16:55.775Z,21.30
2018-06-18T20:19:24.316Z,21.20
2018-06-18T20:21:52.927Z,21.20
2018-06-18T20:29:17.922Z,21.20
2018-06-18T20:31:46.591Z,21.10
2018-06-18T20:34:15.318Z,21.10
2018-06-18T20:36:44.228Z,21.10
2018-06-18T20:41:42.015Z,21.00
2018-06-18T20:46:42.145Z,21.00
2018-06-18T20:51:40.876Z,20.90
2018-06-18T20:54:10.497Z,20.90
2018-06-18T20:56:39.067Z,20.80
2018-06-18T20:59:09.060Z,20.70
2018-06-18T21:06:34.038Z,20.50
2018-06-18T21:09:02.838Z,20.50
2018-06-18T21:11:31.406Z,20.50
2018-06-18T21:13:59.960Z,20.40
2018-06-18T21:16:28.440Z,20.40
2018-06-18T21:21:25.252Z,20.30
2018-06-18T21:23:53.767Z,20.20
2018-06-18T21:26:22.274Z,20.20
2018-06-18T21:28:51.120Z,20.20
2018-06-18T21:31:19.668Z,20.10
2018-06-18T21:33:48.164Z,20.10
2018-06-18T21:36:16.707Z,20.10
2018-06-18T21:41:13.467Z,20.10
2018-06-18T21:46:10.156Z,20.10
2018-06-18T21:48:38.724Z,20.10
2018-06-18T21:51:07.215Z,20.10
2018-06-18T21:53:35.902Z,20.10
2018-06-18T21:56:04.719Z,20.10
2018-06-18T21:58:33.255Z,20.10
2018-06-18T22:03:29.969Z,20.10
2018-06-18T22:05:58.469Z,20.10
2018-06-18T22:08:28.565Z,20.10
2018-06-18T22:10:57.098Z,20.10
2018-06-18T22:15:53.875Z,20.00
2018-06-18T22:18:22.444Z,20.00
2018-06-18T22:20:50.961Z,20.00
2018-06-18T22:23:19.485Z,19.90
2018-06-18T22:35:29.307Z,19.90
2018-06-18T22:40:26.045Z,19.80
2018-06-18T22:42:54.556Z,19.80
2018-06-18T22:47:51.293Z,19.80
2018-06-18T22:50:19.743Z,19.60
2018-06-18T22:52:48.296Z,19.60
2018-06-18T22:55:16.805Z,19.60
2018-06-18T22:57:46.395Z,19.50
2018-06-18T23:00:14.920Z,19.50
2018-06-18T23:02:43.406Z,19.40
2018-06-18T23:05:11.948Z,19.40
2018-06-18T23:07:41.592Z,19.40
2018-06-18T23:10:10.101Z,19.30
2018-06-18T23:15:09.581Z,19.20
2018-06-18T23:17:38.084Z,19.20
2018-06-18T23:20:06.643Z,19.20
2018-06-18T23:22:35.293Z,19.10
2018-06-18T23:25:03.838Z,19.10
2018-06-18T23:27:32.351Z,19.10
2018-06-18T23:30:00.783Z,19.10
2018-06-18T23:32:29.287Z,19.00
2018-06-18T23:34:57.842Z,19.00
2018-06-18T23:37:26.339Z,18.90
2018-06-18T23:39:54.966Z,18.90
2018-06-18T23:44:51.664Z,18.90
2018-06-18T23:47:20.203Z,18.80
2018-06-18T23:54:44.989Z,18.70
2018-06-18T23:57:13.544Z,18.70
2018-06-18T23:59:42.571Z,18.60
